Christian Radich — LJLM — position and weather

sailwx.info

Track history (hours):
 
Tides and Currents Weather Stations Pressure Air Temp Water Temp Dewpoint Dewpoint Depression Visibility Wind Speed Wind Dir Waves Ship Positions

Christian Radich (Norway)

Last reported at 2018-Apr-27 08:28 UTC. Time now 2018-Apr-27 08:47 UTC.
Position N 62°28' E 006°09'.

Length 63 m; draft 5 m.

Type: Sailing vessel. MMSI: 258373000.

Date/timePositionNaut miles runAvg speedWind from/ knotsBaromVisibWave heightAir tempDewpointWater temp
2018-Apr-27 08:28N 62°28' E 006°09'0 0.0
2018-Apr-27 07:59N 62°28' E 006°09'0 0.0
2018-Apr-27 07:29N 62°28' E 006°09'0 0.0
2018-Apr-27 06:59N 62°28' E 006°09'0 0.0
2018-Apr-27 06:30N 62°28' E 006°09'0 0.0
2018-Apr-27 06:00N 62°28' E 006°09'0 0.0
2018-Apr-27 05:30N 62°28' E 006°09'0 0.0
2018-Apr-27 04:58N 62°28' E 006°09'0 0.0
2018-Apr-27 04:28N 62°28' E 006°09'0 0.0
2018-Apr-27 03:58N 62°28' E 006°09'0 0.0
2018-Apr-27 03:29N 62°28' E 006°09'0 0.0
2018-Apr-27 02:59N 62°28' E 006°09'0 0.0
2018-Apr-27 02:29N 62°28' E 006°09'0 0.0
2018-Apr-27 02:00N 62°28' E 006°09'0 0.0
2018-Apr-27 01:30N 62°28' E 006°09'0 0.0
2018-Apr-27 01:00N 62°28' E 006°09'0 0.0
2018-Apr-27 00:28N 62°28' E 006°09'0 0.0
2018-Apr-26 23:58N 62°28' E 006°09'0 0.0
2018-Apr-26 23:28N 62°28' E 006°09'0 0.0
2018-Apr-26 22:59N 62°28' E 006°09'0 0.0
2018-Apr-26 22:29N 62°28' E 006°09'0 0.0
2018-Apr-26 21:59N 62°28' E 006°09'0 0.0
2018-Apr-26 21:30N 62°28' E 006°09'0 0.0
2018-Apr-26 21:00N 62°28' E 006°09'0 0.0
2018-Apr-26 20:30N 62°28' E 006°09'0 0.0
2018-Apr-26 19:58N 62°28' E 006°09'0 0.0
2018-Apr-26 19:28N 62°28' E 006°09'0 0.0
2018-Apr-26 18:58N 62°28' E 006°09'0 0.0
2018-Apr-26 18:29N 62°28' E 006°09'0 0.0
2018-Apr-26 17:59N 62°28' E 006°09'0 0.0
2018-Apr-26 17:29N 62°28' E 006°09'0 0.0
2018-Apr-26 17:00N 62°28' E 006°09'0 0.0
2018-Apr-26 16:30N 62°28' E 006°09'0 0.0
2018-Apr-26 16:00N 62°28' E 006°09'0 0.0
2018-Apr-26 15:28N 62°28' E 006°09'0 0.0
2018-Apr-26 14:58N 62°28' E 006°09'0 0.0
2018-Apr-26 14:28N 62°28' E 006°09'0 0.0
2018-Apr-26 13:59N 62°28' E 006°09'0 0.0
2018-Apr-26 13:29N 62°28' E 006°09'0 0.0
2018-Apr-26 12:59N 62°28' E 006°09'0 0.0
2018-Apr-26 12:30N 62°28' E 006°09'2 3.6
2018-Apr-26 12:00N 62°27' E 006°07'3 5.4
2018-Apr-26 11:30N 62°25' E 006°04'4 8.1
2018-Apr-26 11:00N 62°23' E 006°12'4 8.1
2018-Apr-26 10:29N 62°23' E 006°21'4 8.7
2018-Apr-26 10:00N 62°19' E 006°25'4 9.0
2018-Apr-26 09:30N 62°15' E 006°29'4 7.3
2018-Apr-26 09:00N 62°12' E 006°34'  
2018-Apr-24 02:46N 62°12' E 006°32'1 5.3
2018-Apr-24 02:30N 62°13' E 006°30'3 5.8
2018-Apr-24 01:59N 62°16' E 006°28'3 5.9
2018-Apr-24 01:30N 62°19' E 006°26'3 5.0
2018-Apr-24 00:59N 62°21' E 006°23'2 3.5
2018-Apr-24 00:30N 62°23' E 006°22'2 4.1
2018-Apr-24 00:00N 62°23' E 006°18'3 5.1
2018-Apr-23 23:30N 62°23' E 006°12'3 5.1
2018-Apr-23 23:00N 62°23' E 006°07'2 4.6
2018-Apr-23 22:31N 62°24' E 006°04'2 4.2
2018-Apr-23 22:00N 62°26' E 006°00'3 6.1
2018-Apr-23 21:30N 62°27' E 005°54'3 5.6
2018-Apr-23 21:00N 62°28' E 005°49'4 6.9
2018-Apr-23 20:28N 62°30' E 005°42'3 6.6
2018-Apr-23 20:01N 62°32' E 005°36'3 6.0
2018-Apr-23 19:30N 62°33' E 005°31'3 5.3
2018-Apr-23 19:01N 62°35' E 005°26'3 5.8
2018-Apr-23 18:30N 62°36' E 005°20'2 3.9
2018-Apr-23 18:00N 62°36' E 005°16'2 4.4
2018-Apr-23 17:28N 62°36' E 005°11'11 0.6
2018-Apr-22 22:57N 62°28' E 004°56'2 4.9
2018-Apr-22 22:30N 62°29' E 005°01'2 3.9
2018-Apr-22 22:00N 62°29' E 005°05'4 7.0
2018-Apr-22 21:30N 62°30' E 005°13'4 7.6
2018-Apr-22 21:00N 62°30' E 005°21'4 7.9
2018-Apr-22 20:30N 62°31' E 005°29'2 4.4
2018-Apr-22 20:00N 62°31' E 005°34'3 5.2
2018-Apr-22 19:30N 62°31' E 005°39'4 7.4
2018-Apr-22 19:01N 62°30' E 005°46'4 7.5
2018-Apr-22 18:30N 62°28' E 005°53'4 7.4
2018-Apr-22 18:01N 62°27' E 006°01'4 8.5
2018-Apr-22 17:30N 62°27' E 006°10'1 1.9
2018-Apr-22 17:00N 62°28' E 006°09'0 0.0
2018-Apr-22 16:30N 62°28' E 006°09'0 0.0
2018-Apr-22 15:58N 62°28' E 006°09'0 0.0
2018-Apr-22 15:28N 62°28' E 006°09'0 0.0
2018-Apr-22 14:58N 62°28' E 006°09'0 0.0
2018-Apr-22 14:29N 62°28' E 006°09'0 0.0
2018-Apr-22 13:59N 62°28' E 006°09'0 0.0
2018-Apr-22 13:29N 62°28' E 006°09'0 0.0
2018-Apr-22 13:00N 62°28' E 006°09'0 0.0
2018-Apr-22 12:30N 62°28' E 006°09'0 0.0
2018-Apr-22 12:00N 62°28' E 006°09'0 0.0
2018-Apr-22 11:28N 62°28' E 006°09'0 0.0
2018-Apr-22 10:58N 62°28' E 006°09'0 0.0
2018-Apr-22 10:28N 62°28' E 006°09'0 0.0
2018-Apr-22 09:59N 62°28' E 006°09'0 0.0
2018-Apr-22 09:29N 62°28' E 006°09'0 0.0
2018-Apr-22 08:59N 62°28' E 006°09'0 0.0
2018-Apr-22 08:30N 62°28' E 006°09'0 0.0
2018-Apr-22 08:00N 62°28' E 006°09'0 0.0
2018-Apr-22 07:30N 62°28' E 006°09'0 0.0
2018-Apr-22 06:58N 62°28' E 006°09'0 0.0
2018-Apr-22 06:28N 62°28' E 006°09'0 0.0
2018-Apr-22 05:58N 62°28' E 006°09'0 0.0
2018-Apr-22 05:29N 62°28' E 006°09'0 0.0
2018-Apr-22 04:59N 62°28' E 006°09'0 0.0
2018-Apr-22 04:29N 62°28' E 006°09'0 0.0
2018-Apr-22 04:00N 62°28' E 006°09'0 0.0
2018-Apr-22 03:30N 62°28' E 006°09'0 0.0
2018-Apr-22 03:00N 62°28' E 006°09'0 0.0
2018-Apr-22 02:28N 62°28' E 006°09'0 0.0
2018-Apr-22 01:58N 62°28' E 006°09'0 0.0
2018-Apr-22 01:28N 62°28' E 006°09'0 0.0
2018-Apr-22 00:59N 62°28' E 006°09'0 0.0
2018-Apr-22 00:29N 62°28' E 006°09'0 0.0
2018-Apr-21 23:59N 62°28' E 006°09'0 0.0
2018-Apr-21 23:30N 62°28' E 006°09'0 0.0
2018-Apr-21 23:00N 62°28' E 006°09'0 0.0
2018-Apr-21 22:30N 62°28' E 006°09'0 0.0
2018-Apr-21 21:58N 62°28' E 006°09'0 0.0
2018-Apr-21 21:28N 62°28' E 006°09'0 0.0
2018-Apr-21 20:58N 62°28' E 006°09'0 0.0
2018-Apr-21 20:29N 62°28' E 006°09'0 0.0
2018-Apr-21 19:59N 62°28' E 006°09'0 0.0
2018-Apr-21 19:29N 62°28' E 006°09'0 0.0
2018-Apr-21 19:00N 62°28' E 006°09'0 0.0
2018-Apr-21 18:30N 62°28' E 006°09'0 0.0
2018-Apr-21 18:00N 62°28' E 006°09'0 0.0
2018-Apr-21 17:28N 62°28' E 006°09'0 0.0
2018-Apr-21 16:58N 62°28' E 006°09'0 0.0
2018-Apr-21 16:28N 62°28' E 006°09'0 0.0
2018-Apr-21 15:59N 62°28' E 006°09'0 0.0
2018-Apr-21 15:29N 62°28' E 006°09'0 0.0
2018-Apr-21 14:59N 62°28' E 006°09'0 0.0
2018-Apr-21 14:30N 62°28' E 006°09'0 0.0
2018-Apr-21 14:00N 62°28' E 006°09'0 0.0
2018-Apr-21 13:30N 62°28' E 006°09'0 0.0
2018-Apr-21 12:58N 62°28' E 006°09'0 0.0
2018-Apr-21 12:28N 62°28' E 006°09'0 0.0
2018-Apr-21 11:58N 62°28' E 006°09'0 0.0
2018-Apr-21 11:29N 62°28' E 006°09'0 0.0
2018-Apr-21 10:59N 62°28' E 006°09'0 0.0
2018-Apr-21 10:29N 62°28' E 006°09'0 0.0
2018-Apr-21 10:00N 62°28' E 006°09'0 0.0
2018-Apr-21 09:30N 62°28' E 006°09'0 0.0
2018-Apr-21 09:00N 62°28' E 006°09'0 0.0
2018-Apr-21 08:28N 62°28' E 006°09'0 0.0
2018-Apr-21 07:58N 62°28' E 006°09'0 0.0
2018-Apr-21 07:28N 62°28' E 006°09'0 0.0
2018-Apr-21 06:59N 62°28' E 006°09'0 0.0
2018-Apr-21 06:29N 62°28' E 006°09'0 0.0
2018-Apr-21 05:59N 62°28' E 006°09'0 0.0
2018-Apr-21 05:30N 62°28' E 006°09'0 0.0
2018-Apr-21 05:00N 62°28' E 006°09'0 0.0
2018-Apr-21 04:30N 62°28' E 006°09'0 0.0
2018-Apr-21 03:58N 62°28' E 006°09'0 0.0
2018-Apr-21 03:28N 62°28' E 006°09'0 0.0
2018-Apr-21 02:58N 62°28' E 006°09'0 0.0
2018-Apr-21 02:29N 62°28' E 006°09'0 0.0
2018-Apr-21 01:59N 62°28' E 006°09'0 0.0
2018-Apr-21 01:29N 62°28' E 006°09'0 0.0
2018-Apr-21 01:00N 62°28' E 006°09'0 0.0
2018-Apr-21 00:30N 62°28' E 006°09'0 0.0
2018-Apr-21 00:00N 62°28' E 006°09'0 0.0
2018-Apr-20 23:28N 62°28' E 006°09'0 0.0
2018-Apr-20 22:58N 62°28' E 006°09'0 0.0
2018-Apr-20 22:28N 62°28' E 006°09'0 0.0
2018-Apr-20 21:59N 62°28' E 006°09'0 0.0
2018-Apr-20 21:29N 62°28' E 006°09'0 0.0
2018-Apr-20 20:59N 62°28' E 006°09'0 0.0
2018-Apr-20 20:30N 62°28' E 006°09'0 0.0
2018-Apr-20 20:00N 62°28' E 006°09'0 0.0
2018-Apr-20 19:30N 62°28' E 006°09'0 0.0
2018-Apr-20 18:58N 62°28' E 006°09'0 0.0
2018-Apr-20 18:28N 62°28' E 006°09'0 0.0
2018-Apr-20 17:58N 62°28' E 006°09'0 0.0
2018-Apr-20 17:29N 62°28' E 006°09'0 0.0
2018-Apr-20 16:59N 62°28' E 006°09'0 0.0
2018-Apr-20 16:29N 62°28' E 006°09'0 0.0
2018-Apr-20 16:00N 62°28' E 006°09'0 0.0
2018-Apr-20 15:30N 62°28' E 006°09'0 0.0
2018-Apr-20 15:00N 62°28' E 006°09'0 0.0
2018-Apr-20 14:28N 62°28' E 006°09'0 0.0
2018-Apr-20 13:58N 62°28' E 006°09'0 0.0
2018-Apr-20 13:28N 62°28' E 006°09'0 0.0
2018-Apr-20 12:59N 62°28' E 006°09'0 0.0
2018-Apr-20 12:29N 62°28' E 006°09'0 0.0
2018-Apr-20 11:59N 62°28' E 006°09'0 0.0
2018-Apr-20 11:30N 62°28' E 006°09'0 0.0
2018-Apr-20 11:00N 62°28' E 006°09'0 0.0
2018-Apr-20 10:30N 62°28' E 006°09'0 0.0
2018-Apr-20 09:58N 62°28' E 006°09'0 0.0
2018-Apr-20 09:28N 62°28' E 006°09'0 0.0
2018-Apr-20 08:58N 62°28' E 006°09'0 0.0
2018-Apr-20 08:29N 62°28' E 006°09'0 0.0
2018-Apr-20 07:59N 62°28' E 006°09'0 0.0
2018-Apr-20 07:29N 62°28' E 006°09'0 0.0
2018-Apr-20 07:00N 62°28' E 006°09'1 1.5
2018-Apr-20 06:30N 62°28' E 006°11'3 6.1
2018-Apr-20 06:00N 62°27' E 006°04'1 2.2
2018-Apr-20 05:30N 62°27' E 006°02'1 1.4
2018-Apr-20 04:59N 62°27' E 006°01'1 2.3
2018-Apr-20 04:30N 62°27' E 005°58'1 2.4
2018-Apr-20 03:59N 62°27' E 005°56'1 2.7
2018-Apr-20 03:29N 62°27' E 005°53'1 2.9
2018-Apr-20 03:00N 62°27' E 005°50'1 2.2
2018-Apr-20 02:30N 62°27' E 005°47'1 2.3
2018-Apr-20 01:59N 62°27' E 005°45'1 2.2
2018-Apr-20 01:30N 62°27' E 005°42'2 3.6
2018-Apr-20 00:59N 62°27' E 005°38'2 4.3
2018-Apr-20 00:29N 62°26' E 005°34'2 4.8
2018-Apr-20 00:00N 62°25' E 005°29'3 5.2
2018-Apr-19 23:30N 62°24' E 005°24'2 4.4
2018-Apr-19 23:00N 62°23' E 005°20'2 3.3
2018-Apr-19 22:30N 62°23' E 005°17'2 4.2
2018-Apr-19 22:00N 62°22' E 005°13'3 5.2
2018-Apr-19 21:30N 62°20' E 005°09'2 4.9
2018-Apr-19 21:00N 62°18' E 005°06'3 5.5
2018-Apr-19 20:30N 62°15' E 005°03'3 5.7
2018-Apr-19 19:59N 62°13' E 005°00'3 5.6
2018-Apr-19 19:30N 62°10' E 004°57'3 5.0
2018-Apr-19 19:00N 62°08' E 004°55'2 5.0
2018-Apr-19 18:30N 62°06' E 004°51'3 5.7
2018-Apr-19 18:00N 62°04' E 004°48'3 6.0
2018-Apr-19 17:30N 62°01' E 004°45'3 5.3
2018-Apr-19 17:00N 61°59' E 004°43'2 4.6
2018-Apr-19 16:30N 61°57' E 004°41'3 5.3
2018-Apr-19 15:59N 61°54' E 004°38'3 6.0
2018-Apr-19 15:30N 61°52' E 004°35'3 6.7
2018-Apr-19 15:00N 61°49' E 004°32'4 7.6
2018-Apr-19 14:30N 61°45' E 004°29'4 8.3
2018-Apr-19 13:59N 61°41' E 004°24'7 7.9
2018-Apr-19 13:05N 61°35' E 004°21'1 8.7
2018-Apr-19 13:00N 61°34' E 004°21'4 8.8
2018-Apr-19 12:30N 61°30' E 004°23'4 8.7
2018-Apr-19 12:00N 61°25' E 004°25'5 8.1
2018-Apr-19 11:26N 61°21' E 004°27'4 8.4
2018-Apr-19 11:00N 61°17' E 004°26'4 8.5
2018-Apr-19 10:29N 61°13' E 004°25'5 9.7
2018-Apr-19 10:00N 61°08' E 004°24'5 9.9
2018-Apr-19 09:30N 61°03' E 004°23'4 8.4
2018-Apr-19 09:00N 60°59' E 004°22'4 7.3
2018-Apr-19 08:30N 60°55' E 004°22'3 6.9
2018-Apr-19 08:00N 60°52' E 004°22'4 7.0
2018-Apr-19 07:30N 60°49' E 004°23'4 7.4
2018-Apr-19 07:00N 60°45' E 004°23'4 7.6
2018-Apr-19 06:30N 60°41' E 004°23'4 7.2
2018-Apr-19 06:00N 60°38' E 004°24'4 7.4
2018-Apr-19 05:30N 60°34' E 004°28'4 7.3
2018-Apr-19 05:00N 60°31' E 004°31'3 6.6
2018-Apr-19 04:28N 60°28' E 004°34'3 5.4
2018-Apr-19 04:00N 60°26' E 004°36'3 6.2
2018-Apr-19 03:29N 60°23' E 004°40'3 6.4
2018-Apr-19 03:00N 60°20' E 004°42'3 6.7
2018-Apr-19 02:30N 60°17' E 004°45'3 6.1
2018-Apr-19 02:00N 60°14' E 004°47'3 6.1
2018-Apr-19 01:30N 60°11' E 004°49'3 6.1
2018-Apr-19 01:00N 60°08' E 004°50'3 5.5
2018-Apr-19 00:30N 60°05' E 004°50'3 6.2
2018-Apr-19 00:00N 60°02' E 004°50'3 6.6
2018-Apr-18 23:30N 59°59' E 004°50'3 6.2
2018-Apr-18 23:00N 59°56' E 004°51'4 7.1
2018-Apr-18 22:30N 59°53' E 004°51'4 7.7
2018-Apr-18 22:00N 59°49' E 004°51'4 7.3
2018-Apr-18 21:30N 59°45' E 004°52'3 6.5
2018-Apr-18 21:00N 59°42' E 004°53'4 7.2
2018-Apr-18 20:30N 59°38' E 004°53'3 6.8
2018-Apr-18 20:00N 59°35' E 004°53'3 6.6
2018-Apr-18 19:30N 59°32' E 004°54'3 6.3
2018-Apr-18 19:00N 59°28' E 004°55'3 5.6
2018-Apr-18 18:30N 59°26' E 004°54'3 5.3
2018-Apr-18 18:00N 59°23' E 004°53'3 5.8
2018-Apr-18 17:30N 59°20' E 004°51'2 4.8
2018-Apr-18 17:00N 59°18' E 004°49'2 4.7
2018-Apr-18 16:30N 59°16' E 004°49'2 4.6
2018-Apr-18 16:00N 59°13' E 004°49'2 4.8
2018-Apr-18 15:30N 59°11' E 004°49'14 5.2
2018-Apr-18 12:48N 58°57' E 004°53'2 5.6
2018-Apr-18 12:24N 58°55' E 004°53'2 5.0
2018-Apr-18 11:57N 58°53' E 004°54'2 5.1
2018-Apr-18 11:28N 58°50' E 004°55'3 5.3
2018-Apr-18 10:59N 58°47' E 004°55'2 4.4
2018-Apr-18 10:29N 58°45' E 004°55'2 4.1
2018-Apr-18 09:58N 58°43' E 004°56'2 4.4
2018-Apr-18 09:30N 58°41' E 004°56'2 4.2
2018-Apr-18 09:00N 58°39' E 004°56'3 5.1
2018-Apr-18 08:30N 58°36' E 004°55'3 5.3
2018-Apr-18 08:00N 58°34' E 004°55'3 4.8
2018-Apr-18 07:28N 58°31' E 004°55'2 4.4
2018-Apr-18 07:00N 58°29' E 004°56'3 6.0
2018-Apr-18 06:27N 58°26' E 004°57'69 6.8
2018-Apr-17 20:19N 57°18' E 005°17'3 7.8
2018-Apr-17 19:58N 57°15' E 005°18'4 7.6
2018-Apr-17 19:28N 57°12' E 005°19'4 7.6
2018-Apr-17 19:00N 57°08' E 005°19'  
Track history (hours):
 
Tides and Currents Weather Stations Pressure Air Temp Water Temp Dewpoint Dewpoint Depression Visibility Wind Speed Wind Dir Waves Ship Positions

Christian Radich (Norway)

Last reported at 2018-Apr-27 08:28 UTC. Time now 2018-Apr-27 08:47 UTC.
Position N 62°28' E 006°09'.

Length 63 m; draft 5 m.

Type: Sailing vessel. MMSI: 258373000.

Date/timePositionNaut miles runAvg speedWind from/ knotsBaromVisibWave heightAir tempDewpointWater temp
2018-Apr-27 08:28N 62°28' E 006°09'0 0.0
2018-Apr-27 07:59N 62°28' E 006°09'0 0.0
2018-Apr-27 07:29N 62°28' E 006°09'0 0.0
2018-Apr-27 06:59N 62°28' E 006°09'0 0.0
2018-Apr-27 06:30N 62°28' E 006°09'0 0.0
2018-Apr-27 06:00N 62°28' E 006°09'0 0.0
2018-Apr-27 05:30N 62°28' E 006°09'0 0.0
2018-Apr-27 04:58N 62°28' E 006°09'0 0.0
2018-Apr-27 04:28N 62°28' E 006°09'0 0.0
2018-Apr-27 03:58N 62°28' E 006°09'0 0.0
2018-Apr-27 03:29N 62°28' E 006°09'0 0.0
2018-Apr-27 02:59N 62°28' E 006°09'0 0.0
2018-Apr-27 02:29N 62°28' E 006°09'0 0.0
2018-Apr-27 02:00N 62°28' E 006°09'0 0.0
2018-Apr-27 01:30N 62°28' E 006°09'0 0.0
2018-Apr-27 01:00N 62°28' E 006°09'0 0.0
2018-Apr-27 00:28N 62°28' E 006°09'0 0.0
2018-Apr-26 23:58N 62°28' E 006°09'0 0.0
2018-Apr-26 23:28N 62°28' E 006°09'0 0.0
2018-Apr-26 22:59N 62°28' E 006°09'0 0.0
2018-Apr-26 22:29N 62°28' E 006°09'0 0.0
2018-Apr-26 21:59N 62°28' E 006°09'0 0.0
2018-Apr-26 21:30N 62°28' E 006°09'0 0.0
2018-Apr-26 21:00N 62°28' E 006°09'0 0.0
2018-Apr-26 20:30N 62°28' E 006°09'0 0.0
2018-Apr-26 19:58N 62°28' E 006°09'0 0.0
2018-Apr-26 19:28N 62°28' E 006°09'0 0.0
2018-Apr-26 18:58N 62°28' E 006°09'0 0.0
2018-Apr-26 18:29N 62°28' E 006°09'0 0.0
2018-Apr-26 17:59N 62°28' E 006°09'0 0.0
2018-Apr-26 17:29N 62°28' E 006°09'0 0.0
2018-Apr-26 17:00N 62°28' E 006°09'0 0.0
2018-Apr-26 16:30N 62°28' E 006°09'0 0.0
2018-Apr-26 16:00N 62°28' E 006°09'0 0.0
2018-Apr-26 15:28N 62°28' E 006°09'0 0.0
2018-Apr-26 14:58N 62°28' E 006°09'0 0.0
2018-Apr-26 14:28N 62°28' E 006°09'0 0.0
2018-Apr-26 13:59N 62°28' E 006°09'0 0.0
2018-Apr-26 13:29N 62°28' E 006°09'0 0.0
2018-Apr-26 12:59N 62°28' E 006°09'0 0.0
2018-Apr-26 12:30N 62°28' E 006°09'2 3.6
2018-Apr-26 12:00N 62°27' E 006°07'3 5.4
2018-Apr-26 11:30N 62°25' E 006°04'4 8.1
2018-Apr-26 11:00N 62°23' E 006°12'4 8.1
2018-Apr-26 10:29N 62°23' E 006°21'4 8.7
2018-Apr-26 10:00N 62°19' E 006°25'4 9.0
2018-Apr-26 09:30N 62°15' E 006°29'4 7.3
2018-Apr-26 09:00N 62°12' E 006°34'  
2018-Apr-24 02:46N 62°12' E 006°32'1 5.3
2018-Apr-24 02:30N 62°13' E 006°30'3 5.8
2018-Apr-24 01:59N 62°16' E 006°28'3 5.9
2018-Apr-24 01:30N 62°19' E 006°26'3 5.0
2018-Apr-24 00:59N 62°21' E 006°23'2 3.5
2018-Apr-24 00:30N 62°23' E 006°22'2 4.1
2018-Apr-24 00:00N 62°23' E 006°18'3 5.1
2018-Apr-23 23:30N 62°23' E 006°12'3 5.1
2018-Apr-23 23:00N 62°23' E 006°07'2 4.6
2018-Apr-23 22:31N 62°24' E 006°04'2 4.2
2018-Apr-23 22:00N 62°26' E 006°00'3 6.1
2018-Apr-23 21:30N 62°27' E 005°54'3 5.6
2018-Apr-23 21:00N 62°28' E 005°49'4 6.9
2018-Apr-23 20:28N 62°30' E 005°42'3 6.6
2018-Apr-23 20:01N 62°32' E 005°36'3 6.0
2018-Apr-23 19:30N 62°33' E 005°31'3 5.3
2018-Apr-23 19:01N 62°35' E 005°26'3 5.8
2018-Apr-23 18:30N 62°36' E 005°20'2 3.9
2018-Apr-23 18:00N 62°36' E 005°16'2 4.4
2018-Apr-23 17:28N 62°36' E 005°11'11 0.6
2018-Apr-22 22:57N 62°28' E 004°56'2 4.9
2018-Apr-22 22:30N 62°29' E 005°01'2 3.9
2018-Apr-22 22:00N 62°29' E 005°05'4 7.0
2018-Apr-22 21:30N 62°30' E 005°13'4 7.6
2018-Apr-22 21:00N 62°30' E 005°21'4 7.9
2018-Apr-22 20:30N 62°31' E 005°29'2 4.4
2018-Apr-22 20:00N 62°31' E 005°34'3 5.2
2018-Apr-22 19:30N 62°31' E 005°39'4 7.4
2018-Apr-22 19:01N 62°30' E 005°46'4 7.5
2018-Apr-22 18:30N 62°28' E 005°53'4 7.4
2018-Apr-22 18:01N 62°27' E 006°01'4 8.5
2018-Apr-22 17:30N 62°27' E 006°10'1 1.9
2018-Apr-22 17:00N 62°28' E 006°09'0 0.0
2018-Apr-22 16:30N 62°28' E 006°09'0 0.0
2018-Apr-22 15:58N 62°28' E 006°09'0 0.0
2018-Apr-22 15:28N 62°28' E 006°09'0 0.0
2018-Apr-22 14:58N 62°28' E 006°09'0 0.0
2018-Apr-22 14:29N 62°28' E 006°09'0 0.0
2018-Apr-22 13:59N 62°28' E 006°09'0 0.0
2018-Apr-22 13:29N 62°28' E 006°09'0 0.0
2018-Apr-22 13:00N 62°28' E 006°09'0 0.0
2018-Apr-22 12:30N 62°28' E 006°09'0 0.0
2018-Apr-22 12:00N 62°28' E 006°09'0 0.0
2018-Apr-22 11:28N 62°28' E 006°09'0 0.0
2018-Apr-22 10:58N 62°28' E 006°09'0 0.0
2018-Apr-22 10:28N 62°28' E 006°09'0 0.0
2018-Apr-22 09:59N 62°28' E 006°09'0 0.0
2018-Apr-22 09:29N 62°28' E 006°09'0 0.0
2018-Apr-22 08:59N 62°28' E 006°09'0 0.0
2018-Apr-22 08:30N 62°28' E 006°09'0 0.0
2018-Apr-22 08:00N 62°28' E 006°09'0 0.0
2018-Apr-22 07:30N 62°28' E 006°09'0 0.0
2018-Apr-22 06:58N 62°28' E 006°09'0 0.0
2018-Apr-22 06:28N 62°28' E 006°09'0 0.0
2018-Apr-22 05:58N 62°28' E 006°09'0 0.0
2018-Apr-22 05:29N 62°28' E 006°09'0 0.0
2018-Apr-22 04:59N 62°28' E 006°09'0 0.0
2018-Apr-22 04:29N 62°28' E 006°09'0 0.0
2018-Apr-22 04:00N 62°28' E 006°09'0 0.0
2018-Apr-22 03:30N 62°28' E 006°09'0 0.0
2018-Apr-22 03:00N 62°28' E 006°09'0 0.0
2018-Apr-22 02:28N 62°28' E 006°09'0 0.0
2018-Apr-22 01:58N 62°28' E 006°09'0 0.0
2018-Apr-22 01:28N 62°28' E 006°09'0 0.0
2018-Apr-22 00:59N 62°28' E 006°09'0 0.0
2018-Apr-22 00:29N 62°28' E 006°09'0 0.0
2018-Apr-21 23:59N 62°28' E 006°09'0 0.0
2018-Apr-21 23:30N 62°28' E 006°09'0 0.0
2018-Apr-21 23:00N 62°28' E 006°09'0 0.0
2018-Apr-21 22:30N 62°28' E 006°09'0 0.0
2018-Apr-21 21:58N 62°28' E 006°09'0 0.0
2018-Apr-21 21:28N 62°28' E 006°09'0 0.0
2018-Apr-21 20:58N 62°28' E 006°09'0 0.0
2018-Apr-21 20:29N 62°28' E 006°09'0 0.0
2018-Apr-21 19:59N 62°28' E 006°09'0 0.0
2018-Apr-21 19:29N 62°28' E 006°09'0 0.0
2018-Apr-21 19:00N 62°28' E 006°09'0 0.0
2018-Apr-21 18:30N 62°28' E 006°09'0 0.0
2018-Apr-21 18:00N 62°28' E 006°09'0 0.0
2018-Apr-21 17:28N 62°28' E 006°09'0 0.0
2018-Apr-21 16:58N 62°28' E 006°09'0 0.0
2018-Apr-21 16:28N 62°28' E 006°09'0 0.0
2018-Apr-21 15:59N 62°28' E 006°09'0 0.0
2018-Apr-21 15:29N 62°28' E 006°09'0 0.0
2018-Apr-21 14:59N 62°28' E 006°09'0 0.0
2018-Apr-21 14:30N 62°28' E 006°09'0 0.0
2018-Apr-21 14:00N 62°28' E 006°09'0 0.0
2018-Apr-21 13:30N 62°28' E 006°09'0 0.0
2018-Apr-21 12:58N 62°28' E 006°09'0 0.0
2018-Apr-21 12:28N 62°28' E 006°09'0 0.0
2018-Apr-21 11:58N 62°28' E 006°09'0 0.0
2018-Apr-21 11:29N 62°28' E 006°09'0 0.0
2018-Apr-21 10:59N 62°28' E 006°09'0 0.0
2018-Apr-21 10:29N 62°28' E 006°09'0 0.0
2018-Apr-21 10:00N 62°28' E 006°09'0 0.0
2018-Apr-21 09:30N 62°28' E 006°09'0 0.0
2018-Apr-21 09:00N 62°28' E 006°09'0 0.0
2018-Apr-21 08:28N 62°28' E 006°09'0 0.0
2018-Apr-21 07:58N 62°28' E 006°09'0 0.0
2018-Apr-21 07:28N 62°28' E 006°09'0 0.0
2018-Apr-21 06:59N 62°28' E 006°09'0 0.0
2018-Apr-21 06:29N 62°28' E 006°09'0 0.0
2018-Apr-21 05:59N 62°28' E 006°09'0 0.0
2018-Apr-21 05:30N 62°28' E 006°09'0 0.0
2018-Apr-21 05:00N 62°28' E 006°09'0 0.0
2018-Apr-21 04:30N 62°28' E 006°09'0 0.0
2018-Apr-21 03:58N 62°28' E 006°09'0 0.0
2018-Apr-21 03:28N 62°28' E 006°09'0 0.0
2018-Apr-21 02:58N 62°28' E 006°09'0 0.0
2018-Apr-21 02:29N 62°28' E 006°09'0 0.0
2018-Apr-21 01:59N 62°28' E 006°09'0 0.0
2018-Apr-21 01:29N 62°28' E 006°09'0 0.0
2018-Apr-21 01:00N 62°28' E 006°09'0 0.0
2018-Apr-21 00:30N 62°28' E 006°09'0 0.0
2018-Apr-21 00:00N 62°28' E 006°09'0 0.0
2018-Apr-20 23:28N 62°28' E 006°09'0 0.0
2018-Apr-20 22:58N 62°28' E 006°09'0 0.0
2018-Apr-20 22:28N 62°28' E 006°09'0 0.0
2018-Apr-20 21:59N 62°28' E 006°09'0 0.0
2018-Apr-20 21:29N 62°28' E 006°09'0 0.0
2018-Apr-20 20:59N 62°28' E 006°09'0 0.0
2018-Apr-20 20:30N 62°28' E 006°09'0 0.0
2018-Apr-20 20:00N 62°28' E 006°09'0 0.0
2018-Apr-20 19:30N 62°28' E 006°09'0 0.0
2018-Apr-20 18:58N 62°28' E 006°09'0 0.0
2018-Apr-20 18:28N 62°28' E 006°09'0 0.0
2018-Apr-20 17:58N 62°28' E 006°09'0 0.0
2018-Apr-20 17:29N 62°28' E 006°09'0 0.0
2018-Apr-20 16:59N 62°28' E 006°09'0 0.0
2018-Apr-20 16:29N 62°28' E 006°09'0 0.0
2018-Apr-20 16:00N 62°28' E 006°09'0 0.0
2018-Apr-20 15:30N 62°28' E 006°09'0 0.0
2018-Apr-20 15:00N 62°28' E 006°09'0 0.0
2018-Apr-20 14:28N 62°28' E 006°09'0 0.0
2018-Apr-20 13:58N 62°28' E 006°09'0 0.0
2018-Apr-20 13:28N 62°28' E 006°09'0 0.0
2018-Apr-20 12:59N 62°28' E 006°09'0 0.0
2018-Apr-20 12:29N 62°28' E 006°09'0 0.0
2018-Apr-20 11:59N 62°28' E 006°09'0 0.0
2018-Apr-20 11:30N 62°28' E 006°09'0 0.0
2018-Apr-20 11:00N 62°28' E 006°09'0 0.0
2018-Apr-20 10:30N 62°28' E 006°09'0 0.0
2018-Apr-20 09:58N 62°28' E 006°09'0 0.0
2018-Apr-20 09:28N 62°28' E 006°09'0 0.0
2018-Apr-20 08:58N 62°28' E 006°09'0 0.0
2018-Apr-20 08:29N 62°28' E 006°09'0 0.0
2018-Apr-20 07:59N 62°28' E 006°09'0 0.0
2018-Apr-20 07:29N 62°28' E 006°09'0 0.0
2018-Apr-20 07:00N 62°28' E 006°09'1 1.5
2018-Apr-20 06:30N 62°28' E 006°11'3 6.1
2018-Apr-20 06:00N 62°27' E 006°04'1 2.2
2018-Apr-20 05:30N 62°27' E 006°02'1 1.4
2018-Apr-20 04:59N 62°27' E 006°01'1 2.3
2018-Apr-20 04:30N 62°27' E 005°58'1 2.4
2018-Apr-20 03:59N 62°27' E 005°56'1 2.7
2018-Apr-20 03:29N 62°27' E 005°53'1 2.9
2018-Apr-20 03:00N 62°27' E 005°50'1 2.2
2018-Apr-20 02:30N 62°27' E 005°47'1 2.3
2018-Apr-20 01:59N 62°27' E 005°45'1 2.2
2018-Apr-20 01:30N 62°27' E 005°42'2 3.6
2018-Apr-20 00:59N 62°27' E 005°38'2 4.3
2018-Apr-20 00:29N 62°26' E 005°34'2 4.8
2018-Apr-20 00:00N 62°25' E 005°29'3 5.2
2018-Apr-19 23:30N 62°24' E 005°24'2 4.4
2018-Apr-19 23:00N 62°23' E 005°20'2 3.3
2018-Apr-19 22:30N 62°23' E 005°17'2 4.2
2018-Apr-19 22:00N 62°22' E 005°13'3 5.2
2018-Apr-19 21:30N 62°20' E 005°09'2 4.9
2018-Apr-19 21:00N 62°18' E 005°06'3 5.5
2018-Apr-19 20:30N 62°15' E 005°03'3 5.7
2018-Apr-19 19:59N 62°13' E 005°00'3 5.6
2018-Apr-19 19:30N 62°10' E 004°57'3 5.0
2018-Apr-19 19:00N 62°08' E 004°55'2 5.0
2018-Apr-19 18:30N 62°06' E 004°51'3 5.7
2018-Apr-19 18:00N 62°04' E 004°48'3 6.0
2018-Apr-19 17:30N 62°01' E 004°45'3 5.3
2018-Apr-19 17:00N 61°59' E 004°43'2 4.6
2018-Apr-19 16:30N 61°57' E 004°41'3 5.3
2018-Apr-19 15:59N 61°54' E 004°38'3 6.0
2018-Apr-19 15:30N 61°52' E 004°35'3 6.7
2018-Apr-19 15:00N 61°49' E 004°32'4 7.6
2018-Apr-19 14:30N 61°45' E 004°29'4 8.3
2018-Apr-19 13:59N 61°41' E 004°24'7 7.9
2018-Apr-19 13:05N 61°35' E 004°21'1 8.7
2018-Apr-19 13:00N 61°34' E 004°21'4 8.8
2018-Apr-19 12:30N 61°30' E 004°23'4 8.7
2018-Apr-19 12:00N 61°25' E 004°25'5 8.1
2018-Apr-19 11:26N 61°21' E 004°27'4 8.4
2018-Apr-19 11:00N 61°17' E 004°26'4 8.5
2018-Apr-19 10:29N 61°13' E 004°25'5 9.7
2018-Apr-19 10:00N 61°08' E 004°24'5 9.9
2018-Apr-19 09:30N 61°03' E 004°23'4 8.4
2018-Apr-19 09:00N 60°59' E 004°22'4 7.3
2018-Apr-19 08:30N 60°55' E 004°22'3 6.9
2018-Apr-19 08:00N 60°52' E 004°22'4 7.0
2018-Apr-19 07:30N 60°49' E 004°23'4 7.4
2018-Apr-19 07:00N 60°45' E 004°23'4 7.6
2018-Apr-19 06:30N 60°41' E 004°23'4 7.2
2018-Apr-19 06:00N 60°38' E 004°24'4 7.4
2018-Apr-19 05:30N 60°34' E 004°28'4 7.3
2018-Apr-19 05:00N 60°31' E 004°31'3 6.6
2018-Apr-19 04:28N 60°28' E 004°34'3 5.4
2018-Apr-19 04:00N 60°26' E 004°36'3 6.2
2018-Apr-19 03:29N 60°23' E 004°40'3 6.4
2018-Apr-19 03:00N 60°20' E 004°42'3 6.7
2018-Apr-19 02:30N 60°17' E 004°45'3 6.1
2018-Apr-19 02:00N 60°14' E 004°47'3 6.1
2018-Apr-19 01:30N 60°11' E 004°49'3 6.1
2018-Apr-19 01:00N 60°08' E 004°50'3 5.5
2018-Apr-19 00:30N 60°05' E 004°50'3 6.2
2018-Apr-19 00:00N 60°02' E 004°50'3 6.6
2018-Apr-18 23:30N 59°59' E 004°50'3 6.2
2018-Apr-18 23:00N 59°56' E 004°51'4 7.1
2018-Apr-18 22:30N 59°53' E 004°51'4 7.7
2018-Apr-18 22:00N 59°49' E 004°51'4 7.3
2018-Apr-18 21:30N 59°45' E 004°52'3 6.5
2018-Apr-18 21:00N 59°42' E 004°53'4 7.2
2018-Apr-18 20:30N 59°38' E 004°53'3 6.8
2018-Apr-18 20:00N 59°35' E 004°53'3 6.6
2018-Apr-18 19:30N 59°32' E 004°54'3 6.3
2018-Apr-18 19:00N 59°28' E 004°55'3 5.6
2018-Apr-18 18:30N 59°26' E 004°54'3 5.3
2018-Apr-18 18:00N 59°23' E 004°53'3 5.8
2018-Apr-18 17:30N 59°20' E 004°51'2 4.8
2018-Apr-18 17:00N 59°18' E 004°49'2 4.7
2018-Apr-18 16:30N 59°16' E 004°49'2 4.6
2018-Apr-18 16:00N 59°13' E 004°49'2 4.8
2018-Apr-18 15:30N 59°11' E 004°49'14 5.2
2018-Apr-18 12:48N 58°57' E 004°53'2 5.6
2018-Apr-18 12:24N 58°55' E 004°53'2 5.0
2018-Apr-18 11:57N 58°53' E 004°54'2 5.1
2018-Apr-18 11:28N 58°50' E 004°55'3 5.3
2018-Apr-18 10:59N 58°47' E 004°55'2 4.4
2018-Apr-18 10:29N 58°45' E 004°55'2 4.1
2018-Apr-18 09:58N 58°43' E 004°56'2 4.4
2018-Apr-18 09:30N 58°41' E 004°56'2 4.2
2018-Apr-18 09:00N 58°39' E 004°56'3 5.1
2018-Apr-18 08:30N 58°36' E 004°55'3 5.3
2018-Apr-18 08:00N 58°34' E 004°55'3 4.8
2018-Apr-18 07:28N 58°31' E 004°55'2 4.4
2018-Apr-18 07:00N 58°29' E 004°56'3 6.0
2018-Apr-18 06:27N 58°26' E 004°57'69 6.8
2018-Apr-17 20:19N 57°18' E 005°17'3 7.8
2018-Apr-17 19:58N 57°15' E 005°18'4 7.6
2018-Apr-17 19:28N 57°12' E 005°19'4 7.6
2018-Apr-17 19:00N 57°08' E 005°19'  

Dump ship's entire track history